sensor_id;sensor_type;location;lat;lon;timestamp;pressure;altitude;pressure_sealevel;temperature;humidity
45327;BME280;31062;49.678;24.560;2022-11-20T00:00:04;97929.81;;;-2.21;73.20
45327;BME280;31062;49.678;24.560;2022-11-20T00:02:51;98157.03;;;-0.66;73.23
45327;BME280;31062;49.678;24.560;2022-11-20T00:05:37;98144.88;;;-0.65;72.94
45327;BME280;31062;49.678;24.560;2022-11-20T00:08:23;97933.25;;;-2.10;72.82
45327;BME280;31062;49.678;24.560;2022-11-20T00:11:14;98129.28;;;-0.70;73.26
45327;BME280;31062;49.678;24.560;2022-11-20T00:14:01;97949.78;;;-2.08;73.22
45327;BME280;31062;49.678;24.560;2022-11-20T00:16:47;98111.63;;;-1.04;73.24
45327;BME280;31062;49.678;24.560;2022-11-20T00:19:33;98157.03;;;-0.77;73.54
45327;BME280;31062;49.678;24.560;2022-11-20T00:22:18;98136.28;;;-0.80;73.71
45327;BME280;31062;49.678;24.560;2022-11-20T00:25:04;98140.25;;;-0.87;73.58
45327;BME280;31062;49.678;24.560;2022-11-20T00:27:50;97935.00;;;-2.18;73.04
45327;BME280;31062;49.678;24.560;2022-11-20T00:30:35;97983.31;;;-1.88;73.40
45327;BME280;31062;49.678;24.560;2022-11-20T00:33:21;98043.03;;;-1.44;73.67
45327;BME280;31062;49.678;24.560;2022-11-20T00:36:12;97928.56;;;-2.15;73.89
45327;BME280;31062;49.678;24.560;2022-11-20T00:38:58;98042.03;;;-1.52;73.43
45327;BME280;31062;49.678;24.560;2022-11-20T00:41:44;98025.25;;;-1.50;74.04
45327;BME280;31062;49.678;24.560;2022-11-20T00:44:30;98139.25;;;-0.78;73.24
45327;BME280;31062;49.678;24.560;2022-11-20T00:47:15;98144.47;;;-0.86;73.61
45327;BME280;31062;49.678;24.560;2022-11-20T00:50:01;98170.41;;;-0.73;74.30
45327;BME280;31062;49.678;24.560;2022-11-20T00:52:46;98016.88;;;-1.69;74.08
45327;BME280;31062;49.678;24.560;2022-11-20T00:55:32;97954.22;;;-2.04;73.34
45327;BME280;31062;49.678;24.560;2022-11-20T00:58:18;97931.06;;;-2.28;74.05
45327;BME280;31062;49.678;24.560;2022-11-20T01:01:11;98143.16;;;-0.68;74.69
45327;BME280;31062;49.678;24.560;2022-11-20T01:03:59;98116.03;;;-0.90;74.68
45327;BME280;31062;49.678;24.560;2022-11-20T01:06:45;98095.28;;;-1.04;73.88
45327;BME280;31062;49.678;24.560;2022-11-20T01:09:31;98128.53;;;-0.65;74.25
45327;BME280;31062;49.678;24.560;2022-11-20T01:12:16;98096.69;;;-0.81;74.69
45327;BME280;31062;49.678;24.560;2022-11-20T01:15:02;97892.78;;;-2.19;75.24
45327;BME280;31062;49.678;24.560;2022-11-20T01:17:48;98014.56;;;-1.43;74.63
45327;BME280;31062;49.678;24.560;2022-11-20T01:20:36;97902.41;;;-2.18;75.17
45327;BME280;31062;49.678;24.560;2022-11-20T04:09:15;97988.50;;;-0.10;79.79
45327;BME280;31062;49.678;24.560;2022-11-20T04:12:01;97963.47;;;-0.08;80.57
45327;BME280;31062;49.678;24.560;2022-11-20T04:14:47;97862.50;;;-0.70;80.54
45327;BME280;31062;49.678;24.560;2022-11-20T04:17:32;97754.06;;;-1.44;79.61
45327;BME280;31062;49.678;24.560;2022-11-20T04:20:17;97779.34;;;-1.19;80.43
45327;BME280;31062;49.678;24.560;2022-11-20T04:23:03;97775.19;;;-1.26;80.25
45327;BME280;31062;49.678;24.560;2022-11-20T04:25:49;97897.38;;;-0.38;80.48
45327;BME280;31062;49.678;24.560;2022-11-20T04:28:36;97919.69;;;-0.16;80.48
45327;BME280;31062;49.678;24.560;2022-11-20T04:31:27;97936.00;;;-0.10;80.50
45327;BME280;31062;49.678;24.560;2022-11-20T04:34:13;97933.25;;;-0.10;80.00
45327;BME280;31062;49.678;24.560;2022-11-20T04:36:58;97720.03;;;-1.51;80.80
45327;BME280;31062;49.678;24.560;2022-11-20T04:39:43;97923.84;;;-0.09;80.16
45327;BME280;31062;49.678;24.560;2022-11-20T04:42:29;97878.56;;;-0.36;80.47
45327;BME280;31062;49.678;24.560;2022-11-20T04:45:14;97922.88;;;-0.12;80.18
45327;BME280;31062;49.678;24.560;2022-11-20T04:48:00;97891.38;;;-0.31;80.89
45327;BME280;31062;49.678;24.560;2022-11-20T04:50:45;97918.41;;;-0.09;80.94
45327;BME280;31062;49.678;24.560;2022-11-20T04:53:30;97745.31;;;-1.32;80.92
45327;BME280;31062;49.678;24.560;2022-11-20T04:56:16;97726.34;;;-1.37;80.22
45327;BME280;31062;49.678;24.560;2022-11-20T04:59:02;97830.66;;;-0.51;80.60
45327;BME280;31062;49.678;24.560;2022-11-20T05:01:48;97932.69;;;-0.03;80.14
45327;BME280;31062;49.678;24.560;2022-11-20T05:04:33;97957.56;;;0.12;80.21
45327;BME280;31062;49.678;24.560;2022-11-20T05:07:18;97938.94;;;0.16;80.22
45327;BME280;31062;49.678;24.560;2022-11-20T05:10:04;97877.41;;;-0.22;81.08
45327;BME280;31062;49.678;24.560;2022-11-20T05:12:50;97961.19;;;0.20;81.06
45327;BME280;31062;49.678;24.560;2022-11-20T05:15:35;97784.25;;;-0.88;80.43
45327;BME280;31062;49.678;24.560;2022-11-20T05:18:21;97929.72;;;0.19;81.03
45327;BME280;31062;49.678;24.560;2022-11-20T05:21:07;97907.81;;;0.06;81.09
45327;BME280;31062;49.678;24.560;2022-11-20T05:23:52;97866.44;;;-0.41;80.65
45327;BME280;31062;49.678;24.560;2022-11-20T05:26:37;97878.31;;;-0.14;80.33
45327;BME280;31062;49.678;24.560;2022-11-20T05:29:23;97707.25;;;-1.32;80.83
45327;BME280;31062;49.678;24.560;2022-11-20T05:32:08;97843.94;;;-0.42;81.68
45327;BME280;31062;49.678;24.560;2022-11-20T05:34:54;97910.78;;;0.08;81.17
45327;BME280;31062;49.678;24.560;2022-11-20T05:37:40;97938.94;;;0.16;80.92
45327;BME280;31062;49.678;24.560;2022-11-20T05:40:25;97896.84;;;-0.31;81.82
45327;BME280;31062;49.678;24.560;2022-11-20T05:43:10;97897.16;;;-0.16;81.65
45327;BME280;31062;49.678;24.560;2022-11-20T05:45:56;97739.56;;;-1.23;81.70
45327;BME280;31062;49.678;24.560;2022-11-20T05:48:43;97853.81;;;-0.38;81.42
45327;BME280;31062;49.678;24.560;2022-11-20T05:51:29;97928.94;;;0.24;81.37
45327;BME280;31062;49.678;24.560;2022-11-20T05:54:14;97897.28;;;-0.03;81.98
45327;BME280;31062;49.678;24.560;2022-11-20T05:56:59;97734.69;;;-1.05;81.26
45327;BME280;31062;49.678;24.560;2022-11-20T05:59:45;97930.66;;;0.27;81.43
45327;BME280;31062;49.678;24.560;2022-11-20T06:02:34;97918.03;;;0.24;81.70
45327;BME280;31062;49.678;24.560;2022-11-20T06:05:21;97873.75;;;-0.25;81.35
45327;BME280;31062;49.678;24.560;2022-11-20T06:08:06;97745.69;;;-0.92;81.89
45327;BME280;31062;49.678;24.560;2022-11-20T06:10:51;97868.34;;;-0.06;81.77
45327;BME280;31062;49.678;24.560;2022-11-20T06:13:37;97730.63;;;-0.93;81.90
45327;BME280;31062;49.678;24.560;2022-11-20T06:16:26;97907.72;;;0.17;81.58
45327;BME280;31062;49.678;24.560;2022-11-20T06:19:12;97709.28;;;-0.89;81.77
45327;BME280;31062;49.678;24.560;2022-11-20T06:21:57;97751.16;;;-0.68;82.12
45327;BME280;31062;49.678;24.560;2022-11-20T06:24:42;97811.75;;;-0.19;81.34
45327;BME280;31062;49.678;24.560;2022-11-20T06:27:28;97719.06;;;-0.75;81.88
45327;BME280;31062;49.678;24.560;2022-11-20T06:30:13;97897.44;;;0.48;81.71
45327;BME280;31062;49.678;24.560;2022-11-20T06:32:59;97881.81;;;0.29;81.74
45327;BME280;31062;49.678;24.560;2022-11-20T06:35:44;97941.38;;;0.63;81.89
45327;BME280;31062;49.678;24.560;2022-11-20T06:38:30;97876.44;;;-0.01;82.32
45327;BME280;31062;49.678;24.560;2022-11-20T06:41:19;97781.28;;;-0.42;81.91
45327;BME280;31062;49.678;24.560;2022-11-20T06:44:05;97905.38;;;0.46;82.63
45327;BME280;31062;49.678;24.560;2022-11-20T06:46:51;97838.56;;;-0.04;82.20
45327;BME280;31062;49.678;24.560;2022-11-20T06:49:36;97746.63;;;-0.60;82.54
45327;BME280;31062;49.678;24.560;2022-11-20T06:52:23;97883.72;;;0.34;83.43
45327;BME280;31062;49.678;24.560;2022-11-20T06:55:08;97720.69;;;-0.66;83.35
45327;BME280;31062;49.678;24.560;2022-11-20T06:57:54;97901.69;;;0.62;82.94
45327;BME280;31062;49.678;24.560;2022-11-20T07:00:41;97899.19;;;0.64;83.52
45327;BME280;31062;49.678;24.560;2022-11-20T07:03:27;97807.63;;;0.12;83.36
45327;BME280;31062;49.678;24.560;2022-11-20T07:06:13;97930.47;;;0.63;83.58
45327;BME280;31062;49.678;24.560;2022-11-20T07:08:58;97707.09;;;-0.66;83.98
45327;BME280;31062;49.678;24.560;2022-11-20T07:11:44;97704.63;;;-0.70;83.60
45327;BME280;31062;49.678;24.560;2022-11-20T07:14:29;97809.25;;;0.02;84.15
45327;BME280;31062;49.678;24.560;2022-11-20T07:17:15;97908.06;;;0.70;83.51
45327;BME280;31062;49.678;24.560;2022-11-20T07:20:00;97721.31;;;-0.55;83.50
45327;BME280;31062;49.678;24.560;2022-11-20T07:22:46;97667.84;;;-0.76;83.71
45327;BME280;31062;49.678;24.560;2022-11-20T07:25:31;97719.13;;;-0.37;84.25
45327;BME280;31062;49.678;24.560;2022-11-20T07:28:17;97873.09;;;0.68;84.57
45327;BME280;31062;49.678;24.560;2022-11-20T07:31:03;97883.19;;;0.73;84.33
45327;BME280;31062;49.678;24.560;2022-11-20T07:33:50;97706.88;;;-0.50;84.03
45327;BME280;31062;49.678;24.560;2022-11-20T07:36:35;97682.53;;;-0.61;83.85
45327;BME280;31062;49.678;24.560;2022-11-20T07:39:21;97861.00;;;0.64;83.89
45327;BME280;31062;49.678;24.560;2022-11-20T07:42:07;97821.13;;;0.42;84.34
45327;BME280;31062;49.678;24.560;2022-11-20T07:44:55;97830.72;;;0.49;84.44
45327;BME280;31062;49.678;24.560;2022-11-20T07:47:40;97872.66;;;0.83;83.97
45327;BME280;31062;49.678;24.560;2022-11-20T07:50:26;97697.03;;;-0.34;84.40
45327;BME280;31062;49.678;24.560;2022-11-20T07:53:11;97870.56;;;0.89;84.39
45327;BME280;31062;49.678;24.560;2022-11-20T07:56:01;97697.84;;;-0.39;83.72
45327;BME280;31062;49.678;24.560;2022-11-20T07:58:47;97877.47;;;0.90;84.22
45327;BME280;31062;49.678;24.560;2022-11-20T08:01:33;97870.25;;;0.93;83.81
45327;BME280;31062;49.678;24.560;2022-11-20T08:04:18;97672.16;;;-0.44;83.38
45327;BME280;31062;49.678;24.560;2022-11-20T08:07:04;97389.06;;;-2.31;83.53
45327;BME280;31062;49.678;24.560;2022-11-20T08:09:51;97854.06;;;0.81;83.70
45327;BME280;31062;49.678;24.560;2022-11-20T08:12:49;97869.22;;;0.96;83.17
45327;BME280;31062;49.678;24.560;2022-11-20T08:15:54;97679.50;;;-0.38;83.13
45327;BME280;31062;49.678;24.560;2022-11-20T08:18:39;97872.03;;;0.90;83.16
45327;BME280;31062;49.678;24.560;2022-11-20T08:21:25;97867.97;;;0.97;83.55
45327;BME280;31062;49.678;24.560;2022-11-20T08:24:10;97849.59;;;0.97;83.54
45327;BME280;31062;49.678;24.560;2022-11-20T08:26:58;97703.97;;;-0.14;82.60
45327;BME280;31062;49.678;24.560;2022-11-20T08:29:44;97879.34;;;1.01;82.88
45327;BME280;31062;49.678;24.560;2022-11-20T08:32:29;97848.44;;;0.93;82.69
45327;BME280;31062;49.678;24.560;2022-11-20T08:35:15;97854.03;;;1.00;82.32
45327;BME280;31062;49.678;24.560;2022-11-20T08:38:01;97811.13;;;0.82;82.90
45327;BME280;31062;49.678;24.560;2022-11-20T08:40:47;97819.38;;;0.95;82.73
45327;BME280;31062;49.678;24.560;2022-11-20T08:43:55;97833.25;;;1.10;82.51
45327;BME280;31062;49.678;24.560;2022-11-20T08:46:41;97808.47;;;1.08;82.11
45327;BME280;31062;49.678;24.560;2022-11-20T08:49:28;97770.75;;;0.62;82.34
45327;BME280;31062;49.678;24.560;2022-11-20T08:52:14;97811.66;;;1.12;81.62
45327;BME280;31062;49.678;24.560;2022-11-20T08:54:59;97809.09;;;1.01;81.92
45327;BME280;31062;49.678;24.560;2022-11-20T08:57:45;97744.50;;;0.46;81.60
45327;BME280;31062;49.678;24.560;2022-11-20T09:00:35;97839.22;;;1.09;81.81
45327;BME280;31062;49.678;24.560;2022-11-20T09:03:20;97848.38;;;1.11;81.38
45327;BME280;31062;49.678;24.560;2022-11-20T09:06:06;97727.06;;;0.17;82.00
45327;BME280;31062;49.678;24.560;2022-11-20T09:08:53;97774.47;;;0.46;81.70
45327;BME280;31062;49.678;24.560;2022-11-20T09:11:38;97857.22;;;1.17;81.52
45327;BME280;31062;49.678;24.560;2022-11-20T09:14:24;97713.19;;;0.33;81.11
45327;BME280;31062;49.678;24.560;2022-11-20T09:17:14;97640.47;;;-0.09;80.86
45327;BME280;31062;49.678;24.560;2022-11-20T09:20:00;97636.50;;;-0.08;80.68
45327;BME280;31062;49.678;24.560;2022-11-20T09:22:45;97811.41;;;1.10;81.52
45327;BME280;31062;49.678;24.560;2022-11-20T09:25:31;97661.75;;;0.11;81.19
45327;BME280;31062;49.678;24.560;2022-11-20T09:57:05;97804.13;;;1.71;79.54
45327;BME280;31062;49.678;24.560;2022-11-20T09:59:57;97660.63;;;0.65;79.42
45327;BME280;31062;49.678;24.560;2022-11-20T10:03:24;97792.78;;;1.54;79.29
45327;BME280;31062;49.678;24.560;2022-11-20T10:06:18;97695.47;;;0.85;79.02
45327;BME280;31062;49.678;24.560;2022-11-20T10:09:13;97863.19;;;1.74;79.21
45327;BME280;31062;49.678;24.560;2022-11-20T10:12:15;97819.47;;;1.61;79.06
45327;BME280;31062;49.678;24.560;2022-11-20T10:15:28;97878.56;;;1.77;79.06
45327;BME280;31062;49.678;24.560;2022-11-20T10:24:36;97859.63;;;1.79;79.32
45327;BME280;31062;49.678;24.560;2022-11-20T10:30:20;97793.72;;;1.30;78.91
45327;BME280;31062;49.678;24.560;2022-11-20T10:33:21;97647.47;;;0.50;78.90
45327;BME280;31062;49.678;24.560;2022-11-20T10:36:16;97803.81;;;1.75;79.19
45327;BME280;31062;49.678;24.560;2022-11-20T10:39:15;97774.69;;;1.51;79.56
45327;BME280;31062;49.678;24.560;2022-11-20T10:42:02;97801.41;;;1.84;79.49
45327;BME280;31062;49.678;24.560;2022-11-20T10:44:52;97679.88;;;1.12;79.08
45327;BME280;31062;49.678;24.560;2022-11-20T10:47:50;97784.03;;;1.95;79.07
45327;BME280;31062;49.678;24.560;2022-11-20T10:50:39;97697.81;;;1.34;79.12
45327;BME280;31062;49.678;24.560;2022-11-20T11:02:39;97590.63;;;0.80;78.32
45327;BME280;31062;49.678;24.560;2022-11-20T11:05:33;97785.25;;;2.20;78.59
45327;BME280;31062;49.678;24.560;2022-11-20T11:08:33;97751.34;;;1.89;78.33
45327;BME280;31062;49.678;24.560;2022-11-20T11:11:25;97649.84;;;1.25;78.16
45327;BME280;31062;49.678;24.560;2022-11-20T11:14:14;97777.69;;;2.13;78.21
45327;BME280;31062;49.678;24.560;2022-11-20T11:17:00;97749.53;;;1.92;78.74
45327;BME280;31062;49.678;24.560;2022-11-20T11:19:45;97607.63;;;1.00;78.42
45327;BME280;31062;49.678;24.560;2022-11-20T11:25:36;97641.31;;;1.15;79.09
45327;BME280;31062;49.678;24.560;2022-11-20T11:28:22;97789.31;;;2.27;78.46
45327;BME280;31062;49.678;24.560;2022-11-20T11:31:22;97603.22;;;0.97;78.35
45327;BME280;31062;49.678;24.560;2022-11-20T11:34:14;97744.44;;;2.09;78.52
45327;BME280;31062;49.678;24.560;2022-11-20T11:37:01;97668.28;;;1.45;78.13
45327;BME280;31062;49.678;24.560;2022-11-20T11:39:49;97743.00;;;2.08;78.05
45327;BME280;31062;49.678;24.560;2022-11-20T11:43:05;97662.09;;;0.92;76.96
45327;BME280;31062;49.678;24.560;2022-11-20T11:54:57;97757.34;;;2.22;77.83
45327;BME280;31062;49.678;24.560;2022-11-20T11:57:54;97549.69;;;0.94;77.85
45327;BME280;31062;49.678;24.560;2022-11-20T12:00:58;97595.94;;;1.26;77.41
45327;BME280;31062;49.678;24.560;2022-11-20T12:04:00;97596.72;;;1.13;77.49
45327;BME280;31062;49.678;24.560;2022-11-20T12:06:51;97742.03;;;2.19;77.83
45327;BME280;31062;49.678;24.560;2022-11-20T12:09:42;97747.50;;;2.19;77.67
45327;BME280;31062;49.678;24.560;2022-11-20T12:12:43;97737.44;;;2.00;77.79
45327;BME280;31062;49.678;24.560;2022-11-20T12:15:32;97585.97;;;1.15;77.70
45327;BME280;31062;49.678;24.560;2022-11-20T12:18:19;97732.56;;;2.20;77.99
45327;BME280;31062;49.678;24.560;2022-11-20T12:24:55;97742.81;;;2.27;77.74
45327;BME280;31062;49.678;24.560;2022-11-20T12:30:42;97552.31;;;0.99;77.64
45327;BME280;31062;49.678;24.560;2022-11-20T12:34:04;97691.56;;;1.73;77.34
45327;BME280;31062;49.678;24.560;2022-11-20T12:43:21;97699.41;;;1.89;77.48
45327;BME280;31062;49.678;24.560;2022-11-20T12:46:46;97550.22;;;0.92;77.30
45327;BME280;31062;49.678;24.560;2022-11-20T12:49:54;97616.09;;;1.36;77.12
45327;BME280;31062;49.678;24.560;2022-11-20T12:53:05;97764.94;;;2.16;77.11
45327;BME280;31062;49.678;24.560;2022-11-20T13:05:24;97727.56;;;1.97;78.64
45327;BME280;31062;49.678;24.560;2022-11-20T13:08:25;97723.16;;;1.94;78.27
45327;BME280;31062;49.678;24.560;2022-11-20T13:17:43;97703.53;;;1.83;79.11
45327;BME280;31062;49.678;24.560;2022-11-20T13:20:34;97590.28;;;1.10;78.58
45327;BME280;31062;49.678;24.560;2022-11-20T13:23:25;97687.25;;;1.77;78.84
45327;BME280;31062;49.678;24.560;2022-11-20T13:26:22;97690.91;;;1.80;79.48
45327;BME280;31062;49.678;24.560;2022-11-20T13:29:12;97463.59;;;0.46;79.11
45327;BME280;31062;49.678;24.560;2022-11-20T13:32:21;97662.66;;;1.77;79.43
45327;BME280;31062;49.678;24.560;2022-11-20T13:35:08;97620.25;;;1.50;79.36
45327;BME280;31062;49.678;24.560;2022-11-20T13:38:14;97667.91;;;1.75;79.72
45327;BME280;31062;49.678;24.560;2022-11-20T13:41:00;97665.56;;;1.32;79.82
45327;BME280;31062;49.678;24.560;2022-11-20T13:46:55;97713.94;;;1.84;79.61
45327;BME280;31062;49.678;24.560;2022-11-20T13:49:41;97633.13;;;1.29;79.27
45327;BME280;31062;49.678;24.560;2022-11-20T13:55:50;97706.78;;;1.81;79.23
45327;BME280;31062;49.678;24.560;2022-11-20T13:58:55;97736.44;;;1.77;79.55
45327;BME280;31062;49.678;24.560;2022-11-20T14:01:49;97578.75;;;0.91;80.04
45327;BME280;31062;49.678;24.560;2022-11-20T14:04:38;97519.19;;;0.43;80.05
45327;BME280;31062;49.678;24.560;2022-11-20T14:07:32;97725.06;;;1.73;79.50
45327;BME280;31062;49.678;24.560;2022-11-20T14:10:27;97530.31;;;0.58;79.99
45327;BME280;31062;49.678;24.560;2022-11-20T14:13:20;97510.59;;;0.52;79.68
45327;BME280;31062;49.678;24.560;2022-11-20T14:16:06;97671.72;;;1.59;80.46
45327;BME280;31062;49.678;24.560;2022-11-20T14:18:51;97695.06;;;1.60;80.12
45327;BME280;31062;49.678;24.560;2022-11-20T14:21:38;97671.97;;;1.48;80.47
45327;BME280;31062;49.678;24.560;2022-11-20T14:24:24;97482.78;;;0.14;80.23
45327;BME280;31062;49.678;24.560;2022-11-20T14:27:13;97708.41;;;1.50;80.67
45327;BME280;31062;49.678;24.560;2022-11-20T14:30:01;97646.22;;;1.43;80.73
45327;BME280;31062;49.678;24.560;2022-11-20T14:32:48;97668.63;;;1.42;80.65
45327;BME280;31062;49.678;24.560;2022-11-20T14:35:42;97460.44;;;0.02;80.32
45327;BME280;31062;49.678;24.560;2022-11-20T14:38:31;97674.06;;;1.42;80.83
45327;BME280;31062;49.678;24.560;2022-11-20T14:41:20;97484.56;;;0.11;81.09
45327;BME280;31062;49.678;24.560;2022-11-20T14:44:08;97231.59;;;-2.12;80.53
45327;BME280;31062;49.678;24.560;2022-11-20T14:46:55;97651.59;;;1.22;81.00
45327;BME280;31062;49.678;24.560;2022-11-20T14:49:41;97511.19;;;0.18;80.72
45327;BME280;31062;49.678;24.560;2022-11-20T14:52:27;97554.63;;;0.43;80.58
45327;BME280;31062;49.678;24.560;2022-11-20T14:55:13;97525.00;;;0.07;80.91
45327;BME280;31062;49.678;24.560;2022-11-20T14:58:25;97717.56;;;1.53;81.07
45327;BME280;31062;49.678;24.560;2022-11-20T15:01:26;97581.06;;;0.61;80.89
45327;BME280;31062;49.678;24.560;2022-11-20T15:04:18;97686.66;;;1.32;80.80
45327;BME280;31062;49.678;24.560;2022-11-20T15:07:46;97633.78;;;0.95;80.92
45327;BME280;31062;49.678;24.560;2022-11-20T15:10:36;97710.63;;;1.52;80.56
45327;BME280;31062;49.678;24.560;2022-11-20T15:16:41;97725.13;;;1.47;80.99
45327;BME280;31062;49.678;24.560;2022-11-20T15:19:31;97707.25;;;1.33;80.70
45327;BME280;31062;49.678;24.560;2022-11-20T15:22:21;97700.13;;;1.30;80.71
45327;BME280;31062;49.678;24.560;2022-11-20T15:25:15;97721.44;;;1.44;80.98
45327;BME280;31062;49.678;24.560;2022-11-20T15:28:32;97733.09;;;1.45;80.89
45327;BME280;31062;49.678;24.560;2022-11-20T15:31:53;97671.22;;;1.08;81.10
45327;BME280;31062;49.678;24.560;2022-11-20T15:34:44;97716.06;;;1.39;81.01
45327;BME280;31062;49.678;24.560;2022-11-20T15:37:35;97711.25;;;1.45;81.23
45327;BME280;31062;49.678;24.560;2022-11-20T15:40:24;97694.22;;;1.39;81.35
45327;BME280;31062;49.678;24.560;2022-11-20T15:43:10;97613.19;;;0.94;81.47
45327;BME280;31062;49.678;24.560;2022-11-20T15:46:03;97676.34;;;1.51;81.04
45327;BME280;31062;49.678;24.560;2022-11-20T15:48:53;97686.25;;;1.54;81.79
45327;BME280;31062;49.678;24.560;2022-11-20T15:51:43;97648.75;;;1.28;81.80
45327;BME280;31062;49.678;24.560;2022-11-20T15:54:29;97560.31;;;0.71;81.41
45327;BME280;31062;49.678;24.560;2022-11-20T15:57:30;97668.19;;;1.38;81.36
45327;BME280;31062;49.678;24.560;2022-11-20T16:00:15;97507.75;;;0.31;81.12
45327;BME280;31062;49.678;24.560;2022-11-20T16:03:12;97699.06;;;1.59;81.19
45327;BME280;31062;49.678;24.560;2022-11-20T16:05:58;97625.78;;;0.97;81.56
45327;BME280;31062;49.678;24.560;2022-11-20T16:08:48;97692.94;;;1.66;81.57
45327;BME280;31062;49.678;24.560;2022-11-20T16:11:35;97717.72;;;1.68;81.27
45327;BME280;31062;49.678;24.560;2022-11-20T16:14:21;97505.34;;;0.40;80.82
45327;BME280;31062;49.678;24.560;2022-11-20T16:17:31;97631.03;;;1.08;80.86
45327;BME280;31062;49.678;24.560;2022-11-20T16:20:28;97722.16;;;1.71;80.79
45327;BME280;31062;49.678;24.560;2022-11-20T16:23:15;97727.41;;;1.69;81.03
45327;BME280;31062;49.678;24.560;2022-11-20T16:26:28;97610.03;;;0.90;80.77
45327;BME280;31062;49.678;24.560;2022-11-20T16:30:23;97678.69;;;1.34;80.42
45327;BME280;31062;49.678;24.560;2022-11-20T16:33:17;97628.63;;;0.92;80.24
45327;BME280;31062;49.678;24.560;2022-11-20T16:36:32;97673.88;;;1.00;80.76
45327;BME280;31062;49.678;24.560;2022-11-20T16:39:19;97689.28;;;1.37;80.73
45327;BME280;31062;49.678;24.560;2022-11-20T16:42:12;97623.91;;;0.92;80.34
45327;BME280;31062;49.678;24.560;2022-11-20T16:44:58;97717.31;;;1.64;80.36
45327;BME280;31062;49.678;24.560;2022-11-20T16:47:47;97656.84;;;1.34;80.74
45327;BME280;31062;49.678;24.560;2022-11-20T16:50:32;97700.09;;;1.56;80.97
45327;BME280;31062;49.678;24.560;2022-11-20T16:53:22;97727.41;;;1.56;80.65
45327;BME280;31062;49.678;24.560;2022-11-20T16:56:20;97703.88;;;1.66;80.31
45327;BME280;31062;49.678;24.560;2022-11-20T16:59:24;97685.59;;;1.61;80.12
45327;BME280;31062;49.678;24.560;2022-11-20T17:02:46;97632.28;;;1.20;80.29
45327;BME280;31062;49.678;24.560;2022-11-20T17:05:38;97624.94;;;1.15;80.09
45327;BME280;31062;49.678;24.560;2022-11-20T17:08:34;97678.66;;;1.60;80.58
45327;BME280;31062;49.678;24.560;2022-11-20T17:11:28;97684.94;;;1.68;80.21
45327;BME280;31062;49.678;24.560;2022-11-20T17:14:28;97660.41;;;1.55;80.45
45327;BME280;31062;49.678;24.560;2022-11-20T17:17:22;97679.47;;;1.68;80.59
45327;BME280;31062;49.678;24.560;2022-11-20T17:20:10;97540.91;;;0.61;80.18
45327;BME280;31062;49.678;24.560;2022-11-20T17:22:56;97687.28;;;1.64;80.69
45327;BME280;31062;49.678;24.560;2022-11-20T17:25:43;97652.41;;;1.44;80.63
45327;BME280;31062;49.678;24.560;2022-11-20T17:28:29;97699.25;;;1.61;80.64
45327;BME280;31062;49.678;24.560;2022-11-20T17:31:16;97535.31;;;0.54;80.37
45327;BME280;31062;49.678;24.560;2022-11-20T17:34:05;97508.91;;;0.35;80.60
45327;BME280;31062;49.678;24.560;2022-11-20T17:36:52;97677.19;;;1.59;80.37
45327;BME280;31062;49.678;24.560;2022-11-20T17:39:39;97656.63;;;1.45;80.91
45327;BME280;31062;49.678;24.560;2022-11-20T17:42:25;97500.19;;;0.37;80.63
45327;BME280;31062;49.678;24.560;2022-11-20T17:45:10;97668.38;;;1.53;81.37
45327;BME280;31062;49.678;24.560;2022-11-20T17:47:56;97571.19;;;0.84;81.30
45327;BME280;31062;49.678;24.560;2022-11-20T17:50:41;97657.88;;;1.44;80.63
45327;BME280;31062;49.678;24.560;2022-11-20T17:53:28;97681.19;;;1.58;80.75
45327;BME280;31062;49.678;24.560;2022-11-20T17:56:17;97590.94;;;0.90;80.90
45327;BME280;31062;49.678;24.560;2022-11-20T17:59:21;97483.53;;;0.14;80.60
45327;BME280;31062;49.678;24.560;2022-11-20T18:02:08;97680.34;;;1.50;80.83
45327;BME280;31062;49.678;24.560;2022-11-20T18:04:55;97720.69;;;1.44;80.64
45327;BME280;31062;49.678;24.560;2022-11-20T18:07:40;97695.69;;;1.40;81.20
45327;BME280;31062;49.678;24.560;2022-11-20T18:10:28;97555.28;;;0.35;81.00
45327;BME280;31062;49.678;24.560;2022-11-20T18:13:14;97721.34;;;1.37;81.04
45327;BME280;31062;49.678;24.560;2022-11-20T18:16:06;97631.03;;;1.08;81.27
45327;BME280;31062;49.678;24.560;2022-11-20T18:18:56;97657.06;;;1.36;81.88
45327;BME280;31062;49.678;24.560;2022-11-20T18:21:42;97643.81;;;1.40;81.68
45327;BME280;31062;49.678;24.560;2022-11-20T18:24:28;97646.75;;;1.42;81.17
45327;BME280;31062;49.678;24.560;2022-11-20T18:27:34;97653.25;;;1.39;81.44
45327;BME280;31062;49.678;24.560;2022-11-20T18:31:06;97661.91;;;1.30;81.24
45327;BME280;31062;49.678;24.560;2022-11-20T18:33:52;97678.69;;;1.34;81.70
45327;BME280;31062;49.678;24.560;2022-11-20T18:36:39;97475.22;;;-0.07;81.34
45327;BME280;31062;49.678;24.560;2022-11-20T18:39:26;97679.84;;;1.38;81.50
45327;BME280;31062;49.678;24.560;2022-11-20T18:42:14;97483.72;;;0.03;81.11
45327;BME280;31062;49.678;24.560;2022-11-20T18:45:18;97677.66;;;1.37;81.15
45327;BME280;31062;49.678;24.560;2022-11-20T18:48:03;97661.91;;;1.03;81.50
45327;BME280;31062;49.678;24.560;2022-11-20T18:50:49;97508.47;;;0.05;81.40
45327;BME280;31062;49.678;24.560;2022-11-20T18:53:34;97686.03;;;1.26;81.38
45327;BME280;31062;49.678;24.560;2022-11-20T18:56:20;97703.50;;;1.36;81.70
45327;BME280;31062;49.678;24.560;2022-11-20T18:59:08;97529.47;;;0.23;80.98
45327;BME280;31062;49.678;24.560;2022-11-20T19:01:54;97696.56;;;1.35;81.64
45327;BME280;31062;49.678;24.560;2022-11-20T19:04:58;97689.19;;;1.43;81.37
45327;BME280;31062;49.678;24.560;2022-11-20T19:08:08;97605.22;;;0.83;81.38
45327;BME280;31062;49.678;24.560;2022-11-20T19:10:54;97678.47;;;1.45;81.22
45327;BME280;31062;49.678;24.560;2022-11-20T19:13:41;97561.13;;;0.39;81.55
45327;BME280;31062;49.678;24.560;2022-11-20T19:16:27;97682.47;;;1.44;82.05
45327;BME280;31062;49.678;24.560;2022-11-20T19:19:14;97638.81;;;1.04;81.71
45327;BME280;31062;49.678;24.560;2022-11-20T19:21:59;97719.25;;;1.43;81.74